Auburn, New Hampshire
Current Conditions -  °F | °C
As of 11:53 PM on Wednesday 17 Dec 2014 (Local Time) from KMHT Reporting Station
Broken Clouds Broken Clouds  
Wind Chill: 34°   Ceiling: 9500
Heat Index: 40°   Visibility: 10mi
Dew Point: 32°   Wind: 8mph
Humidity: 73%   Direction: 280°W
Pressure: 29.7"   Gusts: NA
Location:  43°N, 71.35°W
Report Text: KMHT 180453Z 28007KT 10SM FEW070 SCT080 BKN095 04/00 A2970 RMK AO2 SNE51 SLP072 P0000 T00440000 400720017
Loading
Personal Weather Stations






























Interactive Weather Map New forecast layout! Learn more

10-Day Weather Forecast

Advertisements
Track Severe Weather on mobile